createdAt,value
2022-12-19T00:01:36.985Z,32.03
2022-12-19T00:04:10.093Z,32.83
2022-12-19T00:06:43.570Z,34.30
2022-12-19T00:09:12.291Z,32.30
2022-12-19T00:11:40.088Z,33.50
2022-12-19T00:14:07.337Z,31.13
2022-12-19T00:16:33.851Z,33.88
2022-12-19T00:19:01.608Z,36.20
2022-12-19T00:21:30.892Z,27.88
2022-12-19T00:24:00.925Z,32.65
2022-12-19T00:26:32.619Z,40.35
2022-12-19T00:29:02.271Z,30.70
2022-12-19T00:31:31.062Z,35.28
2022-12-19T00:33:58.024Z,33.72
2022-12-19T00:36:26.981Z,38.80
2022-12-19T00:38:56.007Z,33.13
2022-12-19T00:41:28.556Z,34.13
2022-12-19T00:43:57.337Z,39.72
2022-12-19T00:46:24.688Z,26.88
2022-12-19T00:48:51.215Z,28.27
2022-12-19T00:51:20.163Z,28.38
2022-12-19T00:53:48.367Z,31.85
2022-12-19T00:56:20.987Z,31.33
2022-12-19T00:58:47.670Z,31.48
2022-12-19T01:01:21.637Z,30.25
2022-12-19T01:04:26.165Z,31.83
2022-12-19T01:06:35.246Z,25.73
2022-12-19T01:09:02.240Z,28.15
2022-12-19T01:11:47.307Z,27.45
2022-12-19T01:14:20.750Z,28.13
2022-12-19T01:16:50.059Z,26.33
2022-12-19T01:19:18.607Z,25.40
2022-12-19T01:21:45.449Z,26.83
2022-12-19T01:24:12.445Z,27.90
2022-12-19T01:26:40.621Z,29.30
2022-12-19T01:29:07.148Z,26.67
2022-12-19T01:31:33.900Z,33.38
2022-12-19T01:34:03.093Z,30.63
2022-12-19T01:36:29.707Z,34.15
2022-12-19T01:38:57.702Z,33.70
2022-12-19T01:41:26.326Z,27.40
2022-12-19T01:44:04.765Z,26.35
2022-12-19T01:46:50.210Z,27.85
2022-12-19T01:49:36.089Z,34.42
2022-12-19T01:52:06.444Z,28.73
2022-12-19T01:54:40.270Z,31.67
2022-12-19T01:57:10.834Z,33.10
2022-12-19T01:59:43.783Z,33.67
2022-12-19T02:02:18.878Z,36.80
2022-12-19T02:07:15.811Z,32.15
2022-12-19T02:09:44.969Z,33.70
2022-12-19T02:12:13.301Z,33.90
2022-12-19T02:14:40.692Z,37.50
2022-12-19T02:17:29.059Z,32.75
2022-12-19T02:20:19.738Z,36.33
2022-12-19T02:23:07.507Z,28.73
2022-12-19T02:25:48.335Z,33.38
2022-12-19T02:28:35.339Z,31.30
2022-12-19T02:31:18.032Z,34.15
2022-12-19T02:34:29.806Z,32.25
2022-12-19T02:37:04.056Z,28.90
2022-12-19T02:39:52.174Z,27.75
2022-12-19T02:42:30.572Z,39.63
2022-12-19T02:47:31.517Z,25.67
2022-12-19T02:49:59.219Z,26.20
2022-12-19T02:52:25.781Z,30.33
2022-12-19T02:54:57.455Z,29.33
2022-12-19T02:57:41.276Z,28.85
2022-12-19T03:00:10.541Z,31.52
2022-12-19T03:03:00.495Z,31.50
2022-12-19T03:05:34.194Z,26.08
2022-12-19T03:08:18.946Z,30.77
2022-12-19T03:10:54.115Z,32.70
2022-12-19T03:13:37.996Z,29.95
2022-12-19T03:16:08.543Z,27.45
2022-12-19T03:18:35.584Z,25.85
2022-12-19T03:21:05.037Z,27.42
2022-12-19T03:23:31.688Z,33.17
2022-12-19T03:26:04.082Z,30.60
2022-12-19T03:28:39.357Z,28.05
2022-12-19T03:33:35.086Z,23.05
2022-12-19T03:36:06.198Z,28.55
2022-12-19T03:38:35.042Z,25.20
2022-12-19T03:41:03.522Z,28.70
2022-12-19T03:43:31.845Z,25.92
2022-12-19T03:46:08.936Z,26.77
2022-12-19T03:48:43.156Z,28.20
2022-12-19T03:51:16.889Z,26.30
2022-12-19T03:54:03.072Z,29.90
2022-12-19T03:57:00.336Z,25.45
2022-12-19T03:59:41.725Z,24.23
2022-12-19T04:02:09.841Z,24.40
2022-12-19T04:04:43.741Z,20.77
2022-12-19T04:07:13.274Z,21.42
2022-12-19T04:09:42.474Z,21.55
2022-12-19T04:12:16.639Z,25.38
2022-12-19T04:14:43.647Z,20.55
2022-12-19T04:17:19.046Z,22.95
2022-12-19T04:19:59.836Z,22.13
2022-12-19T04:22:32.401Z,19.25
2022-12-19T04:25:01.318Z,19.88
2022-12-19T04:27:34.132Z,23.35
2022-12-19T04:30:02.079Z,18.23
2022-12-19T04:32:32.683Z,19.80
2022-12-19T04:35:00.318Z,13.93
2022-12-19T04:37:26.927Z,18.15
2022-12-19T04:39:53.396Z,17.30
2022-12-19T04:42:19.834Z,19.58
2022-12-19T04:44:46.315Z,18.33
2022-12-19T04:47:13.406Z,16.83
2022-12-19T04:49:39.887Z,16.42
2022-12-19T04:52:06.333Z,15.88
2022-12-19T04:54:34.662Z,19.08
2022-12-19T04:57:01.195Z,21.08
2022-12-19T04:59:27.744Z,18.63
2022-12-19T05:01:54.483Z,17.88
2022-12-19T05:04:21.136Z,18.00
2022-12-19T05:06:47.861Z,17.30
2022-12-19T05:09:14.295Z,18.30
2022-12-19T05:11:40.802Z,15.27
2022-12-19T05:14:07.264Z,15.63
2022-12-19T05:16:33.791Z,21.42
2022-12-19T05:19:01.092Z,15.70
2022-12-19T05:21:27.951Z,15.75
2022-12-19T05:23:55.018Z,15.43
2022-12-19T05:26:21.516Z,14.82
2022-12-19T05:28:48.770Z,15.13
2022-12-19T05:31:18.547Z,13.23
2022-12-19T05:33:45.539Z,13.25
2022-12-19T05:36:14.511Z,13.32
2022-12-19T05:38:41.360Z,15.52
2022-12-19T05:41:15.703Z,13.65
2022-12-19T05:43:46.599Z,16.95
2022-12-19T05:46:13.191Z,13.02
2022-12-19T05:48:39.747Z,14.45
2022-12-19T05:51:06.535Z,12.90
2022-12-19T05:53:36.384Z,13.90
2022-12-19T05:56:15.168Z,17.60
2022-12-19T05:58:42.381Z,12.63
2022-12-19T06:01:11.884Z,13.88
2022-12-19T06:03:38.661Z,11.18
2022-12-19T06:06:08.082Z,13.70
2022-12-19T06:08:35.206Z,12.93
2022-12-19T06:11:03.539Z,12.75
2022-12-19T06:13:30.788Z,9.88
2022-12-19T06:16:02.584Z,13.90
2022-12-19T06:18:29.686Z,10.93
2022-12-19T06:21:03.982Z,11.90
2022-12-19T06:23:32.555Z,10.02
2022-12-19T06:26:00.132Z,11.27
2022-12-19T06:28:27.932Z,11.52
2022-12-19T06:30:58.935Z,11.75
2022-12-19T06:33:27.328Z,13.88
2022-12-19T06:36:15.942Z,9.75
2022-12-19T06:38:42.508Z,11.10
2022-12-19T06:41:29.071Z,11.38
2022-12-19T06:43:59.823Z,10.43
2022-12-19T06:46:27.013Z,11.95
2022-12-19T06:48:53.524Z,8.68
2022-12-19T06:51:20.357Z,9.73
2022-12-19T06:53:46.942Z,7.80
2022-12-19T06:56:15.136Z,9.05
2022-12-19T06:58:42.079Z,11.75
2022-12-19T07:01:16.659Z,9.93
2022-12-19T07:03:43.262Z,9.13
2022-12-19T07:06:09.708Z,10.95
2022-12-19T07:08:36.149Z,11.43
2022-12-19T07:11:02.666Z,10.40
2022-12-19T07:13:29.157Z,9.27
2022-12-19T07:16:01.430Z,9.90
2022-12-19T07:18:32.132Z,7.93
2022-12-19T07:20:58.629Z,10.13
2022-12-19T07:23:25.160Z,10.45
2022-12-19T07:25:51.730Z,10.25
2022-12-19T07:28:18.434Z,10.45
2022-12-19T07:30:45.168Z,11.15
2022-12-19T07:33:13.557Z,12.00
2022-12-19T07:35:42.076Z,15.15
2022-12-19T07:38:09.077Z,13.20
2022-12-19T07:40:36.070Z,13.93
2022-12-19T07:43:04.275Z,12.02
2022-12-19T07:45:31.251Z,13.70
2022-12-19T07:48:01.931Z,13.52
2022-12-19T07:50:29.504Z,10.88
2022-12-19T07:52:57.629Z,10.93
2022-12-19T07:55:24.434Z,10.98
2022-12-19T07:57:50.998Z,13.27
2022-12-19T08:00:18.668Z,12.57
2022-12-19T08:02:45.869Z,10.88
2022-12-19T08:05:12.759Z,10.13
2022-12-19T08:07:39.807Z,12.45
2022-12-19T08:10:11.296Z,11.00
2022-12-19T08:12:38.186Z,13.65
2022-12-19T08:15:05.779Z,11.50
2022-12-19T08:17:32.354Z,10.90
2022-12-19T08:19:59.536Z,13.38
2022-12-19T08:22:26.167Z,10.30
2022-12-19T08:24:52.713Z,10.18
2022-12-19T08:27:19.203Z,11.85
2022-12-19T08:29:45.786Z,11.20
2022-12-19T08:32:17.081Z,8.73
2022-12-19T08:34:46.940Z,9.43
2022-12-19T08:37:13.576Z,10.38
2022-12-19T08:39:40.053Z,10.50
2022-12-19T08:42:06.555Z,11.60
2022-12-19T08:44:33.000Z,7.03
2022-12-19T08:46:59.953Z,9.18
2022-12-19T08:49:26.437Z,9.18
2022-12-19T08:51:52.911Z,10.32
2022-12-19T08:54:19.400Z,10.32
2022-12-19T08:56:47.048Z,8.98
2022-12-19T08:59:22.892Z,10.23
2022-12-19T09:01:59.038Z,11.05
2022-12-19T09:06:01.676Z,8.95
2022-12-19T09:07:15.687Z,11.10
2022-12-19T09:09:42.882Z,6.85
2022-12-19T09:12:09.415Z,10.50
2022-12-19T09:14:36.071Z,10.80
2022-12-19T09:17:03.829Z,9.65
2022-12-19T09:19:32.316Z,9.65
2022-12-19T09:21:59.239Z,8.38
2022-12-19T09:24:26.352Z,9.23
2022-12-19T09:26:53.116Z,10.25
2022-12-19T09:29:21.845Z,9.25
2022-12-19T09:34:33.194Z,10.82
2022-12-19T09:37:03.801Z,9.52
2022-12-19T09:39:30.525Z,10.00
2022-12-19T09:42:29.681Z,8.68
2022-12-19T09:45:19.784Z,7.35
2022-12-19T09:47:58.844Z,9.23
2022-12-19T09:50:43.850Z,8.15
2022-12-19T09:53:18.057Z,9.05
2022-12-19T09:55:46.627Z,8.75
2022-12-19T09:58:36.640Z,10.73
2022-12-19T10:01:12.001Z,9.00
2022-12-19T10:03:50.359Z,10.15
2022-12-19T10:07:09.383Z,9.80
2022-12-19T10:11:45.744Z,8.45
2022-12-19T10:12:44.383Z,10.07
2022-12-19T10:15:33.669Z,10.50
2022-12-19T10:18:21.660Z,8.00
2022-12-19T10:21:02.870Z,9.52
2022-12-19T10:23:50.489Z,6.95
2022-12-19T10:26:21.173Z,7.30
2022-12-19T10:29:03.127Z,8.07
2022-12-19T10:31:58.459Z,7.93
2022-12-19T10:34:38.563Z,8.20
2022-12-19T10:37:47.245Z,9.93
2022-12-19T10:40:31.090Z,10.70
2022-12-19T10:43:10.852Z,9.80
2022-12-19T10:48:30.260Z,7.53
2022-12-19T10:50:57.404Z,8.38
2022-12-19T10:53:32.011Z,7.30
2022-12-19T10:56:11.860Z,8.48
2022-12-19T10:58:44.281Z,8.00
2022-12-19T11:01:19.554Z,6.57
2022-12-19T11:03:51.365Z,7.55
2022-12-19T11:07:04.511Z,6.55
2022-12-19T11:09:37.303Z,6.90
2022-12-19T11:14:24.219Z,6.20
2022-12-19T11:20:13.857Z,8.93
2022-12-19T11:28:03.702Z,8.15
2022-12-19T11:29:37.220Z,7.18
2022-12-19T11:29:47.125Z,6.95
2022-12-19T11:30:37.135Z,8.43
2022-12-19T11:32:42.679Z,7.45
2022-12-19T11:35:37.125Z,6.50
2022-12-19T11:38:08.291Z,6.10
2022-12-19T11:40:49.596Z,9.18
2022-12-19T11:43:43.617Z,10.98
2022-12-19T11:46:22.235Z,7.72
2022-12-19T11:49:10.849Z,7.75
2022-12-19T11:51:52.494Z,7.13
2022-12-19T11:54:25.285Z,6.55
2022-12-19T11:56:51.998Z,8.45
2022-12-19T11:59:20.123Z,9.35
2022-12-19T12:02:02.444Z,5.95
2022-12-19T12:04:29.003Z,8.55
2022-12-19T12:06:57.592Z,6.75
2022-12-19T12:14:25.808Z,6.75
2022-12-19T12:22:25.302Z,7.82
2022-12-19T12:31:08.293Z,6.57
2022-12-19T12:31:14.028Z,7.10
2022-12-19T12:31:27.600Z,8.13
2022-12-19T12:32:03.191Z,6.15
2022-12-19T12:32:03.986Z,6.68
2022-12-19T12:35:40.929Z,5.25
2022-12-19T12:40:42.501Z,7.28
2022-12-19T12:43:33.375Z,7.47
2022-12-19T12:46:01.904Z,7.72
2022-12-19T12:48:45.591Z,7.15
2022-12-19T12:51:12.916Z,6.53
2022-12-19T12:53:44.275Z,5.30
2022-12-19T12:56:13.581Z,5.45
2022-12-19T12:58:50.941Z,4.25
2022-12-19T13:01:35.415Z,6.70
2022-12-19T13:04:11.168Z,4.93
2022-12-19T13:06:43.214Z,5.95
2022-12-19T13:09:09.679Z,8.35
2022-12-19T13:11:58.593Z,7.60
2022-12-19T13:14:34.023Z,7.50
2022-12-19T13:17:01.430Z,5.30
2022-12-19T13:19:30.614Z,7.45
2022-12-19T13:22:14.694Z,5.35
2022-12-19T13:24:42.664Z,5.35
2022-12-19T13:27:21.369Z,6.30
2022-12-19T13:30:00.315Z,7.78
2022-12-19T13:32:33.220Z,4.80
2022-12-19T13:35:44.601Z,5.93
2022-12-19T13:39:48.863Z,6.78
2022-12-19T13:40:43.606Z,6.32
2022-12-19T13:43:48.049Z,6.07
2022-12-19T13:46:38.848Z,6.47
2022-12-19T13:49:18.800Z,6.30
2022-12-19T13:51:52.209Z,4.38
2022-12-19T13:54:26.803Z,5.82
2022-12-19T13:56:55.004Z,6.35
2022-12-19T13:59:24.912Z,4.82
2022-12-19T14:01:53.515Z,5.85
2022-12-19T14:04:30.113Z,6.32
2022-12-19T14:07:20.563Z,9.68
2022-12-19T14:11:26.292Z,6.63
2022-12-19T14:13:45.453Z,5.45
2022-12-19T14:15:52.007Z,7.55
2022-12-19T14:18:42.448Z,5.90
2022-12-19T14:22:05.735Z,5.78
2022-12-19T14:24:19.950Z,5.97
2022-12-19T14:28:26.612Z,5.05
2022-12-19T14:30:28.325Z,5.10
2022-12-19T14:33:53.579Z,8.27
2022-12-19T14:36:05.798Z,5.57
2022-12-19T14:39:24.645Z,7.00
2022-12-19T14:41:58.811Z,5.38
2022-12-19T14:52:25.644Z,6.68
2022-12-19T14:53:08.677Z,7.55
2022-12-19T14:54:03.319Z,6.82
2022-12-19T14:59:03.299Z,7.32
2022-12-19T15:01:33.707Z,5.43
2022-12-19T15:04:53.369Z,4.43
2022-12-19T15:07:07.233Z,3.92
2022-12-19T15:11:03.851Z,4.78
2022-12-19T15:14:50.494Z,4.80
2022-12-19T15:16:07.318Z,5.22
2022-12-19T15:18:34.025Z,5.32
2022-12-19T15:21:06.458Z,6.15
2022-12-19T15:23:32.952Z,5.45
2022-12-19T15:26:07.430Z,6.00
2022-12-19T15:28:40.212Z,5.93
2022-12-19T15:31:17.205Z,9.90
2022-12-19T15:34:06.772Z,4.70
2022-12-19T15:36:30.355Z,4.53
2022-12-19T15:38:56.899Z,4.65
2022-12-19T15:41:25.079Z,5.15
2022-12-19T15:44:03.716Z,9.20
2022-12-19T15:46:32.304Z,5.78
2022-12-19T15:48:58.836Z,4.47
2022-12-19T15:51:25.324Z,9.23
2022-12-19T15:53:51.797Z,8.07
2022-12-19T15:56:28.494Z,5.03
2022-12-19T15:58:57.140Z,5.68
2022-12-19T16:01:24.355Z,5.15
2022-12-19T16:03:51.549Z,5.25
2022-12-19T16:06:18.392Z,5.68
2022-12-19T16:08:44.879Z,6.47
2022-12-19T16:11:24.739Z,5.60
2022-12-19T16:13:56.515Z,6.75
2022-12-19T16:16:23.280Z,6.47
2022-12-19T16:18:49.789Z,7.75
2022-12-19T16:21:31.566Z,5.43
2022-12-19T16:24:00.381Z,6.32
2022-12-19T16:26:35.757Z,5.75
2022-12-19T16:29:02.523Z,5.25
2022-12-19T16:31:29.300Z,6.80
2022-12-19T16:33:56.139Z,6.68
2022-12-19T16:36:22.701Z,5.55
2022-12-19T16:38:49.266Z,6.18
2022-12-19T16:41:24.205Z,6.28
2022-12-19T16:46:21.605Z,7.97
2022-12-19T16:48:49.018Z,5.47
2022-12-19T16:51:27.484Z,5.90
2022-12-19T16:54:00.159Z,6.22
2022-12-19T16:56:40.760Z,7.38
2022-12-19T16:59:23.211Z,6.57
2022-12-19T17:01:51.057Z,7.03
2022-12-19T17:04:23.461Z,6.07
2022-12-19T17:06:52.237Z,5.63
2022-12-19T17:09:21.399Z,8.00
2022-12-19T17:11:51.712Z,4.85
2022-12-19T17:14:21.838Z,6.03
2022-12-19T17:16:48.919Z,5.60
2022-12-19T17:19:21.149Z,6.07
2022-12-19T17:21:48.770Z,5.38
2022-12-19T17:24:15.735Z,6.80
2022-12-19T17:26:43.492Z,6.20
2022-12-19T17:29:10.973Z,9.07
2022-12-19T17:31:39.697Z,11.07
2022-12-19T17:34:17.432Z,9.23
2022-12-19T17:36:44.821Z,6.28
2022-12-19T17:39:23.109Z,6.65
2022-12-19T17:41:50.579Z,5.00
2022-12-19T17:44:17.832Z,7.72
2022-12-19T17:46:45.955Z,4.53
2022-12-19T17:49:23.066Z,5.28
2022-12-19T17:51:52.320Z,5.22
2022-12-19T17:54:20.491Z,4.47
2022-12-19T17:56:47.549Z,6.47
2022-12-19T17:59:14.173Z,5.05
2022-12-19T18:01:41.886Z,6.60
2022-12-19T18:04:18.130Z,5.78
2022-12-19T18:06:45.287Z,5.10
2022-12-19T18:09:22.589Z,9.15
2022-12-19T18:11:50.122Z,5.25
2022-12-19T18:14:17.503Z,5.35
2022-12-19T18:16:45.772Z,6.03
2022-12-19T18:19:19.980Z,5.75
2022-12-19T18:21:47.231Z,4.80
2022-12-19T18:24:16.412Z,5.65
2022-12-19T18:26:44.440Z,8.30
2022-12-19T18:29:11.289Z,6.60
2022-12-19T18:31:39.945Z,5.32
2022-12-19T18:34:18.974Z,9.07
2022-12-19T18:36:45.465Z,6.65
2022-12-19T18:39:26.055Z,5.07
2022-12-19T18:41:53.843Z,4.13
2022-12-19T18:44:22.594Z,5.70
2022-12-19T18:46:51.390Z,6.25
2022-12-19T18:49:18.295Z,5.72
2022-12-19T18:51:45.127Z,9.90
2022-12-19T18:54:18.992Z,9.02
2022-12-19T18:56:46.079Z,21.38
2022-12-19T18:59:12.900Z,10.63
2022-12-19T19:01:43.461Z,12.25
2022-12-19T19:04:13.031Z,13.25
2022-12-19T19:06:50.337Z,14.88
2022-12-19T19:09:19.087Z,7.68
2022-12-19T19:11:59.535Z,8.45
2022-12-19T19:14:26.071Z,7.93
2022-12-19T19:16:53.160Z,8.25
2022-12-19T19:19:19.920Z,4.55
2022-12-19T19:21:46.553Z,6.47
2022-12-19T19:24:16.719Z,11.85
2022-12-19T19:26:43.232Z,4.10
2022-12-19T19:29:09.876Z,5.13
2022-12-19T19:31:40.660Z,5.13
2022-12-19T19:34:14.451Z,6.72
2022-12-19T19:36:44.794Z,8.02
2022-12-19T19:39:11.305Z,7.22
2022-12-19T19:41:37.791Z,6.88
2022-12-19T19:44:04.475Z,6.88
2022-12-19T19:46:32.278Z,7.18
2022-12-19T19:48:59.067Z,8.57
2022-12-19T19:51:28.571Z,8.95
2022-12-19T19:53:55.496Z,6.18
2022-12-19T19:56:21.952Z,8.82
2022-12-19T19:58:48.654Z,7.78
2022-12-19T20:01:15.435Z,7.45
2022-12-19T20:03:43.210Z,7.40
2022-12-19T20:06:10.469Z,8.68
2022-12-19T20:08:40.051Z,7.07
2022-12-19T20:11:08.872Z,9.10
2022-12-19T20:13:35.659Z,7.10
2022-12-19T20:16:04.900Z,6.40
2022-12-19T20:18:31.592Z,5.15
2022-12-19T20:20:58.229Z,10.00
2022-12-19T20:23:25.161Z,5.97
2022-12-19T20:25:52.097Z,5.72
2022-12-19T20:28:18.738Z,6.28
2022-12-19T20:30:45.853Z,6.47
2022-12-19T20:33:12.347Z,4.18
2022-12-19T20:35:38.884Z,6.07
2022-12-19T20:38:05.341Z,4.85
2022-12-19T20:40:31.844Z,4.35
2022-12-19T20:42:58.434Z,5.45
2022-12-19T20:45:24.937Z,7.18
2022-12-19T20:47:51.438Z,7.05
2022-12-19T20:50:17.989Z,7.38
2022-12-19T20:52:44.428Z,6.20
2022-12-19T20:55:11.025Z,9.32
2022-12-19T20:57:37.548Z,4.50
2022-12-19T21:00:06.393Z,13.55
2022-12-19T21:02:52.501Z,20.38
2022-12-19T21:05:20.458Z,8.23
2022-12-19T21:07:47.055Z,5.97
2022-12-19T21:10:13.906Z,7.30
2022-12-19T21:12:47.193Z,8.23
2022-12-19T21:15:14.323Z,4.68
2022-12-19T21:17:40.798Z,5.05
2022-12-19T21:20:07.819Z,5.25
2022-12-19T21:22:34.425Z,5.10
2022-12-19T21:25:00.961Z,7.22
2022-12-19T21:27:27.458Z,7.97
2022-12-19T21:29:53.899Z,4.65
2022-12-19T21:32:20.388Z,5.57
2022-12-19T21:34:46.930Z,5.85
2022-12-19T21:37:13.376Z,7.28
2022-12-19T21:39:39.942Z,6.43
2022-12-19T21:42:06.370Z,6.22
2022-12-19T21:44:32.812Z,6.55
2022-12-19T21:46:59.362Z,4.88
2022-12-19T21:49:25.916Z,5.15
2022-12-19T21:51:52.395Z,7.43
2022-12-19T21:54:18.957Z,6.88
2022-12-19T21:56:46.063Z,5.15
2022-12-19T21:59:15.118Z,6.63
2022-12-19T22:04:17.936Z,4.85
2022-12-19T22:06:44.527Z,4.07
2022-12-19T22:09:13.931Z,8.18
2022-12-19T22:11:40.792Z,5.30
2022-12-19T22:14:08.116Z,7.60
2022-12-19T22:16:35.642Z,7.90
2022-12-19T22:19:03.149Z,7.43
2022-12-19T22:21:29.884Z,6.90
2022-12-19T22:24:01.282Z,6.55
2022-12-19T22:26:29.605Z,5.45
2022-12-19T22:28:57.556Z,6.07
2022-12-19T22:31:27.132Z,6.03
2022-12-19T22:33:56.166Z,4.88
2022-12-19T22:38:55.893Z,6.22
2022-12-19T22:41:22.369Z,3.72
2022-12-19T22:43:49.206Z,5.22
2022-12-19T22:46:19.848Z,5.00
2022-12-19T22:48:48.678Z,5.07
2022-12-19T22:51:16.701Z,7.18
2022-12-19T22:53:46.355Z,4.68
2022-12-19T22:56:17.685Z,5.90
2022-12-19T22:58:47.256Z,5.38
2022-12-19T23:01:32.388Z,5.72
2022-12-19T23:04:01.331Z,4.68
2022-12-19T23:08:55.962Z,4.90
2022-12-19T23:11:27.818Z,4.47
2022-12-19T23:13:54.606Z,5.13
2022-12-19T23:16:21.100Z,3.83
2022-12-19T23:18:48.034Z,3.55
2022-12-19T23:21:19.812Z,4.47
2022-12-19T23:23:49.444Z,4.05
2022-12-19T23:26:19.201Z,4.40
2022-12-19T23:28:51.753Z,4.72
2022-12-19T23:31:19.000Z,5.20
2022-12-19T23:33:45.523Z,5.80
2022-12-19T23:36:11.972Z,5.20
2022-12-19T23:38:38.967Z,4.75
2022-12-19T23:41:08.109Z,4.13
2022-12-19T23:43:36.332Z,5.38
2022-12-19T23:46:16.865Z,5.78
2022-12-19T23:48:43.503Z,4.32
2022-12-19T23:51:16.171Z,6.05
2022-12-19T23:53:43.154Z,4.38
2022-12-19T23:56:15.537Z,4.15
2022-12-19T23:58:43.040Z,4.45
